createdAt,value
2023-01-31T00:01:37.510Z,6.13
2023-01-31T00:04:07.226Z,6.57
2023-01-31T00:06:38.923Z,7.13
2023-01-31T00:09:07.755Z,6.50
2023-01-31T00:11:35.094Z,7.67
2023-01-31T00:14:04.575Z,6.93
2023-01-31T00:16:31.410Z,6.57
2023-01-31T00:18:58.068Z,8.07
2023-01-31T00:21:27.537Z,6.37
2023-01-31T00:23:55.474Z,7.20
2023-01-31T00:26:29.753Z,6.93
2023-01-31T00:28:58.619Z,6.10
2023-01-31T00:31:27.097Z,6.40
2023-01-31T00:33:54.910Z,6.30
2023-01-31T00:36:24.195Z,6.83
2023-01-31T00:38:52.731Z,7.90
2023-01-31T00:41:21.214Z,7.37
2023-01-31T00:43:48.374Z,7.67
2023-01-31T00:46:15.220Z,6.17
2023-01-31T00:48:42.429Z,7.27
2023-01-31T00:51:09.380Z,7.57
2023-01-31T00:53:36.562Z,7.70
2023-01-31T00:56:12.373Z,6.97
2023-01-31T00:58:39.783Z,7.97
2023-01-31T01:01:28.395Z,8.83
2023-01-31T01:03:57.199Z,6.97
2023-01-31T01:06:24.707Z,6.97
2023-01-31T01:08:51.487Z,7.97
2023-01-31T01:11:23.400Z,7.53
2023-01-31T01:13:51.032Z,8.23
2023-01-31T01:16:21.055Z,7.80
2023-01-31T01:18:49.258Z,8.27
2023-01-31T01:21:39.130Z,10.83
2023-01-31T01:24:10.937Z,8.87
2023-01-31T01:26:37.768Z,8.07
2023-01-31T01:29:04.808Z,7.83
2023-01-31T01:31:32.528Z,7.77
2023-01-31T01:34:02.462Z,8.67
2023-01-31T01:36:34.621Z,8.13
2023-01-31T01:39:01.952Z,8.33
2023-01-31T01:41:28.751Z,8.30
2023-01-31T01:43:59.732Z,8.57
2023-01-31T01:46:33.991Z,8.17
2023-01-31T01:49:09.081Z,8.40
2023-01-31T01:51:36.122Z,8.13
2023-01-31T01:54:08.893Z,9.43
2023-01-31T01:56:39.205Z,9.03
2023-01-31T01:59:32.396Z,10.20
2023-01-31T02:01:59.112Z,8.30
2023-01-31T02:04:30.906Z,8.37
2023-01-31T02:07:00.296Z,9.77
2023-01-31T02:09:53.768Z,9.33
2023-01-31T02:12:20.912Z,11.87
2023-01-31T02:14:48.548Z,8.93
2023-01-31T02:17:18.220Z,8.70
2023-01-31T02:19:56.096Z,10.83
2023-01-31T02:22:32.551Z,9.67
2023-01-31T02:25:31.186Z,9.87
2023-01-31T02:28:13.075Z,10.43
2023-01-31T02:31:07.635Z,9.80
2023-01-31T02:33:54.212Z,11.00
2023-01-31T02:36:51.834Z,9.10
2023-01-31T02:39:49.660Z,10.93
2023-01-31T02:42:31.921Z,10.57
2023-01-31T02:45:27.829Z,9.83
2023-01-31T02:48:10.292Z,10.37
2023-01-31T02:50:46.693Z,9.67
2023-01-31T02:53:24.824Z,11.43
2023-01-31T02:56:20.443Z,9.67
2023-01-31T02:58:50.679Z,10.40
2023-01-31T03:01:23.203Z,11.27
2023-01-31T03:03:52.253Z,11.40
2023-01-31T03:06:23.260Z,11.33
2023-01-31T03:09:11.346Z,11.60
2023-01-31T03:11:53.360Z,12.50
2023-01-31T03:14:28.400Z,10.03
2023-01-31T03:17:21.349Z,12.07
2023-01-31T03:20:11.091Z,11.43
2023-01-31T03:23:02.800Z,11.97
2023-01-31T03:25:34.352Z,12.63
2023-01-31T03:28:06.378Z,10.10
2023-01-31T03:30:39.855Z,10.27
2023-01-31T03:33:33.767Z,11.80
2023-01-31T03:36:36.064Z,12.87
2023-01-31T03:39:44.715Z,10.97
2023-01-31T03:42:23.863Z,12.33
2023-01-31T03:44:59.251Z,12.37
2023-01-31T03:47:31.365Z,14.20
2023-01-31T03:50:03.281Z,10.73
2023-01-31T03:52:36.074Z,13.23
2023-01-31T03:55:16.335Z,12.20
2023-01-31T03:57:46.420Z,12.40
2023-01-31T04:00:16.503Z,13.37
2023-01-31T04:02:43.959Z,11.77
2023-01-31T04:05:18.704Z,12.97
2023-01-31T04:07:45.719Z,12.63
2023-01-31T04:10:18.795Z,12.10
2023-01-31T04:12:46.755Z,12.93
2023-01-31T04:15:14.524Z,11.50
2023-01-31T04:17:41.135Z,14.20
2023-01-31T04:20:09.623Z,14.53
2023-01-31T04:22:36.923Z,11.90
2023-01-31T04:25:04.647Z,13.63
2023-01-31T04:27:31.297Z,12.60
2023-01-31T04:29:57.889Z,12.27
2023-01-31T04:32:24.895Z,13.80
2023-01-31T04:34:51.671Z,12.23
2023-01-31T04:37:18.331Z,12.37
2023-01-31T04:39:44.953Z,12.20
2023-01-31T04:42:11.648Z,13.60
2023-01-31T04:44:38.395Z,14.80
2023-01-31T04:47:05.067Z,12.13
2023-01-31T04:49:31.782Z,13.47
2023-01-31T04:51:58.428Z,12.73
2023-01-31T04:54:25.149Z,15.50
2023-01-31T04:56:51.802Z,12.90
2023-01-31T04:59:18.816Z,14.50
2023-01-31T05:01:45.458Z,11.80
2023-01-31T05:04:12.677Z,15.37
2023-01-31T05:06:39.316Z,14.83
2023-01-31T05:09:06.654Z,14.63
2023-01-31T05:11:33.393Z,13.23
2023-01-31T05:14:00.385Z,14.27
2023-01-31T05:16:27.102Z,15.23
2023-01-31T05:18:53.783Z,12.93
2023-01-31T05:21:20.431Z,15.50
2023-01-31T05:23:47.075Z,14.17
2023-01-31T05:26:13.808Z,16.27
2023-01-31T05:28:40.577Z,15.87
2023-01-31T05:31:08.622Z,15.00
2023-01-31T05:33:36.185Z,13.10
2023-01-31T05:36:03.777Z,15.33
2023-01-31T05:38:31.259Z,13.30
2023-01-31T05:40:58.009Z,15.73
2023-01-31T05:43:24.700Z,15.90
2023-01-31T05:45:51.469Z,14.33
2023-01-31T05:48:18.258Z,16.60
2023-01-31T05:50:44.911Z,14.37
2023-01-31T05:53:11.564Z,16.13
2023-01-31T05:55:38.523Z,13.40
2023-01-31T05:58:05.243Z,16.77
2023-01-31T06:00:32.190Z,14.43
2023-01-31T06:03:00.026Z,15.70
2023-01-31T06:05:27.362Z,13.97
2023-01-31T06:07:54.065Z,14.33
2023-01-31T06:10:21.230Z,14.30
2023-01-31T06:12:48.380Z,20.77
2023-01-31T06:15:15.127Z,17.20
2023-01-31T06:17:41.828Z,15.20
2023-01-31T06:20:09.189Z,15.80
2023-01-31T06:22:36.436Z,16.77
2023-01-31T06:25:03.237Z,20.53
2023-01-31T06:27:33.146Z,12.80
2023-01-31T06:29:59.969Z,15.10
2023-01-31T06:32:27.013Z,14.50
2023-01-31T06:34:53.732Z,16.97
2023-01-31T06:37:20.388Z,15.57
2023-01-31T06:39:48.061Z,14.60
2023-01-31T06:42:14.717Z,14.20
2023-01-31T06:44:41.575Z,13.33
2023-01-31T06:47:08.246Z,13.90
2023-01-31T06:49:34.880Z,14.90
2023-01-31T06:52:01.562Z,13.93
2023-01-31T06:54:28.247Z,14.73
2023-01-31T06:56:55.024Z,14.33
2023-01-31T06:59:21.711Z,15.63
2023-01-31T07:01:48.505Z,15.17
2023-01-31T07:04:15.409Z,15.13
2023-01-31T07:06:42.088Z,15.83
2023-01-31T07:09:08.730Z,16.93
2023-01-31T07:11:37.354Z,15.03
2023-01-31T07:14:04.460Z,16.43
2023-01-31T07:16:31.339Z,16.47
2023-01-31T07:18:58.028Z,17.93
2023-01-31T07:21:26.265Z,20.60
2023-01-31T07:23:52.960Z,19.93
2023-01-31T07:26:19.681Z,20.37
2023-01-31T07:28:46.578Z,22.17
2023-01-31T07:31:14.966Z,18.93
2023-01-31T07:33:42.306Z,22.07
2023-01-31T07:36:13.212Z,18.03
2023-01-31T07:38:40.421Z,16.60
2023-01-31T07:41:08.744Z,19.07
2023-01-31T07:43:35.698Z,19.20
2023-01-31T07:46:02.765Z,19.20
2023-01-31T07:48:29.813Z,17.37
2023-01-31T07:51:00.881Z,21.47
2023-01-31T07:53:34.223Z,23.40
2023-01-31T07:56:14.053Z,21.47
2023-01-31T07:58:42.642Z,20.90
2023-01-31T08:01:36.803Z,18.23
2023-01-31T08:04:19.406Z,19.77
2023-01-31T08:06:48.804Z,23.80
2023-01-31T08:09:15.796Z,17.77
2023-01-31T08:11:42.683Z,18.50
2023-01-31T08:14:09.977Z,19.53
2023-01-31T08:16:37.030Z,19.07
2023-01-31T08:19:04.202Z,20.73
2023-01-31T08:21:31.608Z,21.30
2023-01-31T08:23:58.339Z,23.70
2023-01-31T08:26:25.233Z,20.67
2023-01-31T08:28:53.984Z,24.27
2023-01-31T08:31:23.413Z,18.43
2023-01-31T08:33:53.146Z,16.77
2023-01-31T08:36:29.701Z,18.83
2023-01-31T08:38:56.476Z,18.53
2023-01-31T08:41:25.706Z,22.80
2023-01-31T08:43:56.982Z,19.53
2023-01-31T08:46:26.852Z,17.87
2023-01-31T08:48:53.910Z,19.00
2023-01-31T08:51:20.649Z,19.10
2023-01-31T08:53:47.941Z,17.43
2023-01-31T08:56:15.359Z,19.40
2023-01-31T08:58:44.721Z,20.10
2023-01-31T09:01:17.356Z,18.83
2023-01-31T09:03:45.519Z,16.73
2023-01-31T09:06:17.441Z,18.57
2023-01-31T09:08:44.154Z,16.87
2023-01-31T09:11:11.153Z,18.57
2023-01-31T09:13:37.857Z,19.97
2023-01-31T09:16:10.289Z,19.60
2023-01-31T09:18:39.873Z,17.27
2023-01-31T09:21:21.185Z,14.80
2023-01-31T09:23:48.846Z,15.80
2023-01-31T09:26:17.045Z,15.23
2023-01-31T09:28:45.264Z,14.93
2023-01-31T09:31:15.031Z,17.17
2023-01-31T09:33:42.532Z,18.00
2023-01-31T09:36:14.987Z,17.20
2023-01-31T09:38:42.064Z,13.70
2023-01-31T09:41:14.723Z,17.23
2023-01-31T09:43:45.758Z,18.07
2023-01-31T09:46:17.278Z,14.90
2023-01-31T09:48:48.473Z,17.63
2023-01-31T09:51:16.496Z,17.67
2023-01-31T09:53:44.907Z,15.17
2023-01-31T09:56:42.683Z,16.97
2023-01-31T09:59:23.124Z,17.00
2023-01-31T10:02:05.317Z,18.03
2023-01-31T10:04:41.071Z,13.93
2023-01-31T10:07:20.584Z,17.47
2023-01-31T10:09:57.091Z,21.03
2023-01-31T10:12:40.748Z,17.40
2023-01-31T10:15:19.361Z,14.90
2023-01-31T10:17:52.861Z,17.27
2023-01-31T10:20:43.962Z,21.03
2023-01-31T10:23:23.245Z,18.40
2023-01-31T10:26:01.079Z,20.63
2023-01-31T10:28:57.473Z,16.17
2023-01-31T10:31:33.241Z,14.27
2023-01-31T10:34:11.166Z,15.40
2023-01-31T10:36:58.662Z,13.63
2023-01-31T10:39:33.199Z,15.00
2023-01-31T10:42:02.577Z,17.70
2023-01-31T10:44:55.100Z,15.83
2023-01-31T10:47:31.824Z,17.20
2023-01-31T10:49:58.559Z,15.80
2023-01-31T10:52:53.080Z,18.93
2023-01-31T10:55:25.468Z,13.60
2023-01-31T10:57:53.220Z,13.37
2023-01-31T11:00:24.012Z,12.67
2023-01-31T11:02:50.803Z,15.13
2023-01-31T11:05:21.178Z,13.07
2023-01-31T11:07:47.950Z,13.87
2023-01-31T11:10:25.213Z,12.73
2023-01-31T11:13:04.635Z,10.87
2023-01-31T11:15:45.327Z,11.83
2023-01-31T11:18:26.281Z,11.00
2023-01-31T11:20:53.612Z,11.67
2023-01-31T11:23:27.920Z,10.83
2023-01-31T11:25:55.577Z,12.73
2023-01-31T11:28:38.015Z,12.53
2023-01-31T11:31:07.553Z,12.70
2023-01-31T11:33:58.274Z,10.27
2023-01-31T11:36:26.816Z,8.63
2023-01-31T11:38:54.662Z,10.03
2023-01-31T11:41:30.453Z,11.00
2023-01-31T11:44:11.052Z,9.27
2023-01-31T11:46:48.448Z,7.97
2023-01-31T11:49:22.407Z,10.60
2023-01-31T11:51:50.156Z,8.90
2023-01-31T11:54:26.373Z,9.30
2023-01-31T11:56:55.664Z,9.27
2023-01-31T11:59:26.987Z,8.87
2023-01-31T12:01:56.756Z,7.77
2023-01-31T12:04:32.633Z,9.80
2023-01-31T12:07:05.580Z,9.87
2023-01-31T12:09:42.955Z,8.17
2023-01-31T12:12:33.781Z,9.17
2023-01-31T12:15:12.997Z,8.83
2023-01-31T12:17:46.368Z,10.77
2023-01-31T12:20:27.475Z,8.67
2023-01-31T12:23:07.262Z,9.47
2023-01-31T12:25:45.420Z,9.97
2023-01-31T12:28:42.282Z,7.97
2023-01-31T12:31:40.804Z,6.57
2023-01-31T12:35:00.136Z,8.00
2023-01-31T12:37:52.551Z,8.00
2023-01-31T12:40:27.624Z,7.70
2023-01-31T12:43:02.452Z,9.63
2023-01-31T12:45:53.826Z,11.47
2023-01-31T12:48:34.509Z,8.33
2023-01-31T12:51:40.240Z,9.73
2023-01-31T12:54:50.873Z,8.97
2023-01-31T12:57:35.891Z,6.77
2023-01-31T13:00:27.197Z,7.30
2023-01-31T13:03:32.292Z,8.37
2023-01-31T13:06:16.690Z,6.07
2023-01-31T13:09:06.763Z,6.67
2023-01-31T13:11:48.044Z,9.27
2023-01-31T13:14:20.650Z,6.50
2023-01-31T13:16:52.564Z,8.83
2023-01-31T13:19:55.836Z,8.70
2023-01-31T13:22:28.549Z,6.27
2023-01-31T13:25:17.118Z,8.27
2023-01-31T13:27:51.014Z,10.70
2023-01-31T13:30:22.378Z,8.67
2023-01-31T13:32:52.493Z,8.83
2023-01-31T13:35:26.478Z,8.37
2023-01-31T13:37:59.835Z,8.60
2023-01-31T13:40:34.989Z,11.20
2023-01-31T13:43:08.617Z,10.97
2023-01-31T13:45:45.904Z,13.33
2023-01-31T13:48:36.855Z,8.53
2023-01-31T13:51:17.676Z,8.23
2023-01-31T13:53:56.381Z,9.73
2023-01-31T13:56:28.210Z,8.23
2023-01-31T13:58:56.571Z,10.23
2023-01-31T14:01:25.715Z,9.40
2023-01-31T14:04:11.283Z,7.47
2023-01-31T14:06:55.889Z,9.00
2023-01-31T14:09:35.508Z,9.20
2023-01-31T14:12:22.573Z,8.27
2023-01-31T14:14:56.675Z,8.43
2023-01-31T14:17:29.643Z,8.43
2023-01-31T14:19:56.717Z,8.33
2023-01-31T14:22:34.084Z,7.43
2023-01-31T14:25:02.524Z,10.20
2023-01-31T14:27:31.394Z,10.20
2023-01-31T14:30:04.808Z,8.57
2023-01-31T14:32:39.307Z,8.80
2023-01-31T14:35:52.099Z,8.07
2023-01-31T14:38:35.852Z,9.97
2023-01-31T14:41:05.471Z,8.30
2023-01-31T14:43:53.938Z,9.50
2023-01-31T14:46:45.967Z,12.60
2023-01-31T14:49:21.765Z,8.70
2023-01-31T14:52:09.837Z,6.90
2023-01-31T14:55:26.873Z,9.77
2023-01-31T14:57:58.748Z,10.93
2023-01-31T15:00:30.383Z,7.97
2023-01-31T15:03:16.300Z,6.40
2023-01-31T15:05:49.906Z,8.07
2023-01-31T15:08:16.484Z,6.13
2023-01-31T15:11:04.701Z,8.87
2023-01-31T15:13:53.710Z,7.70
2023-01-31T15:16:20.449Z,5.33
2023-01-31T15:18:51.539Z,5.70
2023-01-31T15:21:24.338Z,5.40
2023-01-31T15:23:52.543Z,4.50
2023-01-31T15:26:20.342Z,6.57
2023-01-31T15:28:48.823Z,4.97
2023-01-31T15:31:29.544Z,5.30
2023-01-31T15:34:01.464Z,7.77
2023-01-31T15:36:44.365Z,8.33
2023-01-31T15:39:37.017Z,7.60
2023-01-31T15:42:25.365Z,7.33
2023-01-31T15:45:13.455Z,5.30
2023-01-31T15:47:40.275Z,5.73
2023-01-31T15:50:22.279Z,8.20
2023-01-31T15:52:48.969Z,5.23
2023-01-31T15:55:19.218Z,6.33
2023-01-31T15:57:58.281Z,4.97
2023-01-31T16:00:31.680Z,8.30
2023-01-31T16:03:02.233Z,4.73
2023-01-31T16:05:32.754Z,5.40
2023-01-31T16:08:01.353Z,6.80
2023-01-31T16:10:29.723Z,5.37
2023-01-31T16:12:58.855Z,6.63
2023-01-31T16:15:28.202Z,5.40
2023-01-31T16:17:58.395Z,7.17
2023-01-31T16:20:42.399Z,4.50
2023-01-31T16:23:24.205Z,6.77
2023-01-31T16:25:56.288Z,5.20
2023-01-31T16:28:24.553Z,4.57
2023-01-31T16:30:52.192Z,6.87
2023-01-31T16:33:23.590Z,4.40
2023-01-31T16:36:13.117Z,5.13
2023-01-31T16:38:43.183Z,5.40
2023-01-31T16:41:12.958Z,4.63
2023-01-31T16:43:43.514Z,6.33
2023-01-31T16:46:35.257Z,5.20
2023-01-31T16:49:07.518Z,5.40
2023-01-31T16:51:41.945Z,6.87
2023-01-31T16:54:14.513Z,5.60
2023-01-31T16:56:41.203Z,5.87
2023-01-31T16:59:33.832Z,5.20
2023-01-31T17:02:24.533Z,5.87
2023-01-31T17:04:54.465Z,4.67
2023-01-31T17:07:24.623Z,6.83
2023-01-31T17:09:56.448Z,9.13
2023-01-31T17:12:27.621Z,6.63
2023-01-31T17:15:00.770Z,8.03
2023-01-31T17:17:34.819Z,6.40
2023-01-31T17:20:01.569Z,7.57
2023-01-31T17:22:28.341Z,8.10
2023-01-31T17:24:55.111Z,7.83
2023-01-31T17:27:22.315Z,7.53
2023-01-31T17:29:49.382Z,6.63
2023-01-31T17:32:19.044Z,6.57
2023-01-31T17:34:48.227Z,6.50
2023-01-31T17:37:30.160Z,8.20
2023-01-31T17:39:58.276Z,9.13
2023-01-31T17:42:24.917Z,11.07
2023-01-31T17:44:51.548Z,8.53
2023-01-31T17:47:18.671Z,6.90
2023-01-31T17:49:45.437Z,7.07
2023-01-31T17:52:12.246Z,8.37
2023-01-31T17:54:38.973Z,5.47
2023-01-31T17:57:05.670Z,5.70
2023-01-31T17:59:32.373Z,7.47
2023-01-31T18:02:00.441Z,7.00
2023-01-31T18:04:27.114Z,5.40
2023-01-31T18:06:53.882Z,8.53
2023-01-31T18:09:20.923Z,9.83
2023-01-31T18:11:47.779Z,8.70
2023-01-31T18:14:15.617Z,5.87
2023-01-31T18:16:42.433Z,6.50
2023-01-31T18:19:11.418Z,7.70
2023-01-31T18:21:43.881Z,8.27
2023-01-31T18:24:13.717Z,5.50
2023-01-31T18:26:40.487Z,7.87
2023-01-31T18:29:07.165Z,5.87
2023-01-31T18:31:33.921Z,8.90
2023-01-31T18:34:00.647Z,4.67
2023-01-31T18:36:27.360Z,5.97
2023-01-31T18:38:54.061Z,4.70
2023-01-31T18:41:21.460Z,7.00
2023-01-31T18:43:49.215Z,5.77
2023-01-31T18:46:17.155Z,6.50
2023-01-31T18:48:44.269Z,6.47
2023-01-31T18:51:13.500Z,6.00
2023-01-31T18:53:47.233Z,6.70
2023-01-31T18:56:20.135Z,6.40
2023-01-31T18:58:52.401Z,4.73
2023-01-31T19:01:22.017Z,12.03
2023-01-31T19:03:52.811Z,51.13
2023-01-31T19:06:30.978Z,13.77
2023-01-31T19:08:58.492Z,8.83
2023-01-31T19:11:27.785Z,7.00
2023-01-31T19:13:54.518Z,7.40
2023-01-31T19:16:28.930Z,7.33
2023-01-31T19:18:57.008Z,7.80
2023-01-31T19:21:28.978Z,9.00
2023-01-31T19:23:58.040Z,8.10
2023-01-31T19:26:24.896Z,7.40
2023-01-31T19:28:51.676Z,7.57
2023-01-31T19:31:21.097Z,6.90
2023-01-31T19:33:52.632Z,10.37
2023-01-31T19:36:29.436Z,9.27
2023-01-31T19:39:00.665Z,8.53
2023-01-31T19:41:28.310Z,7.70
2023-01-31T19:43:57.044Z,8.87
2023-01-31T19:46:27.230Z,7.90
2023-01-31T19:48:55.729Z,8.63
2023-01-31T19:51:23.421Z,9.50
2023-01-31T19:53:50.241Z,8.63
2023-01-31T19:56:17.357Z,7.87
2023-01-31T19:58:44.252Z,8.00
2023-01-31T20:01:18.408Z,9.10
2023-01-31T20:03:45.708Z,9.23
2023-01-31T20:06:15.359Z,9.40
2023-01-31T20:08:42.309Z,7.67
2023-01-31T20:11:10.017Z,8.90
2023-01-31T20:13:37.007Z,7.87
2023-01-31T20:16:09.308Z,9.27
2023-01-31T20:18:37.848Z,6.67
2023-01-31T20:21:05.363Z,7.27
2023-01-31T20:23:32.500Z,8.23
2023-01-31T20:25:59.964Z,8.97
2023-01-31T20:28:27.551Z,8.70
2023-01-31T20:30:54.777Z,7.67
2023-01-31T20:33:22.221Z,9.77
2023-01-31T20:35:49.829Z,10.27
2023-01-31T20:38:18.016Z,9.33
2023-01-31T20:40:50.586Z,7.50
2023-01-31T20:43:18.112Z,9.43
2023-01-31T20:45:45.053Z,8.67
2023-01-31T20:48:12.099Z,8.23
2023-01-31T20:50:38.819Z,7.20
2023-01-31T20:53:05.726Z,8.30
2023-01-31T20:55:33.500Z,8.67
2023-01-31T20:58:00.141Z,9.33
2023-01-31T21:00:26.856Z,8.20
2023-01-31T21:02:53.808Z,6.87
2023-01-31T21:05:20.511Z,7.07
2023-01-31T21:07:47.130Z,12.13
2023-01-31T21:10:14.326Z,9.27
2023-01-31T21:12:40.958Z,8.53
2023-01-31T21:15:08.284Z,10.87
2023-01-31T21:17:40.372Z,10.17
2023-01-31T21:20:08.214Z,7.10
2023-01-31T21:22:35.080Z,8.13
2023-01-31T21:25:02.092Z,8.70
2023-01-31T21:27:29.225Z,8.30
2023-01-31T21:29:56.216Z,10.43
2023-01-31T21:32:23.012Z,9.30
2023-01-31T21:34:49.754Z,8.43
2023-01-31T21:37:16.419Z,8.17
2023-01-31T21:39:43.097Z,10.57
2023-01-31T21:42:16.475Z,8.53
2023-01-31T21:44:43.817Z,10.10
2023-01-31T21:47:10.974Z,7.87
2023-01-31T21:49:37.861Z,8.00
2023-01-31T21:52:05.541Z,7.13
2023-01-31T21:54:33.092Z,8.17
2023-01-31T21:57:00.212Z,7.97
2023-01-31T21:59:26.876Z,7.50
2023-01-31T22:01:53.887Z,8.80
2023-01-31T22:04:21.064Z,7.23
2023-01-31T22:06:48.635Z,9.37
2023-01-31T22:09:15.526Z,8.33
2023-01-31T22:11:42.887Z,9.10
2023-01-31T22:14:12.294Z,6.77
2023-01-31T22:16:40.173Z,8.90
2023-01-31T22:19:07.544Z,7.77
2023-01-31T22:21:36.375Z,8.10
2023-01-31T22:24:05.288Z,9.40
2023-01-31T22:26:35.641Z,7.80
2023-01-31T22:29:04.124Z,8.83
2023-01-31T22:31:31.595Z,12.60
2023-01-31T22:33:59.999Z,8.70
2023-01-31T22:36:27.144Z,9.67
2023-01-31T22:38:54.616Z,8.60
2023-01-31T22:41:21.772Z,8.70
2023-01-31T22:43:50.446Z,9.13
2023-01-31T22:46:19.908Z,9.23
2023-01-31T22:48:49.249Z,7.00
2023-01-31T22:51:17.794Z,7.40
2023-01-31T22:53:44.552Z,6.00
2023-01-31T22:56:17.330Z,7.20
2023-01-31T22:58:44.009Z,8.03
2023-01-31T23:01:13.304Z,7.27
2023-01-31T23:03:40.216Z,7.60
2023-01-31T23:06:07.106Z,7.27
2023-01-31T23:08:33.840Z,8.23
2023-01-31T23:11:06.280Z,9.57
2023-01-31T23:13:33.901Z,6.23
2023-01-31T23:16:00.930Z,8.10
2023-01-31T23:18:29.110Z,8.13
2023-01-31T23:21:04.342Z,5.57
2023-01-31T23:23:30.980Z,5.73
2023-01-31T23:25:57.732Z,7.83
2023-01-31T23:28:24.525Z,5.80
2023-01-31T23:30:51.282Z,5.43
2023-01-31T23:33:18.251Z,6.90
2023-01-31T23:35:45.430Z,4.97
2023-01-31T23:38:12.322Z,5.80
2023-01-31T23:40:39.161Z,6.77
2023-01-31T23:43:05.802Z,5.07
2023-01-31T23:45:32.573Z,4.00
2023-01-31T23:47:59.919Z,5.03
2023-01-31T23:50:26.685Z,4.77
2023-01-31T23:52:53.417Z,3.23
2023-01-31T23:55:22.622Z,3.17
2023-01-31T23:57:50.319Z,3.77
